Time;durP1;ratioP1;P1;durP2;ratioP2;P2;SDS_P1;SDS_P2;PMS_P1;PMS_P2;Temp;Humidity;BMP_temperature;BMP_pressure;BME280_temperature;BME280_humidity;BME280_pressure;Samples;Min_cycle;Max_cycle;Signal;HPM_P1;HPM_P2
2023/10/14 00:02:01;;;;;;;;;;;;;;;;;;5155607;27;20010;-42
2023/10/14 00:04:27;;;;;;;;;;;;;;;;;;5155865;27;19927;-44
2023/10/14 00:06:54;;;;;;;;;;;;;;;;;;5156054;27;20029;-42
2023/10/14 00:09:21;;;;;;;;;;;;;;;;;;5147161;27;19950;-44
2023/10/14 00:11:53;;;;;;;;;;;;;;;;;;5176797;27;19923;-44
2023/10/14 00:14:19;;;;;;;;;;;;;;;;;;5176237;27;19923;-43
2023/10/14 00:16:51;;;;;;;;;;;;;;;;;;5176833;27;20036;-41
2023/10/14 00:19:18;;;;;;;;;;;;;;;;;;5145003;27;20444;-46
2023/10/14 00:21:43;;;;;;;;;;;;;;;;;;5134389;28;20398;-42
2023/10/14 00:24:09;;;;;;;;;;;;;;;;;;5134681;28;20394;-42
2023/10/14 00:26:34;;;;;;;;;;;;;;;;;;5134780;28;20019;-42
2023/10/14 00:29:17;;;;;;;;;;;;;;;;;;5133894;27;19927;-44
2023/10/14 00:31:42;;;;;;;;;;;;;;;;;;5134394;28;19923;-42
2023/10/14 00:34:08;;;;;;;;;;;;;;;;;;5154167;27;20331;-45
2023/10/14 00:36:34;;;;;;;;;;;;;;;;;;5155193;27;19971;-43
2023/10/14 00:39:00;;;;;;;;;;;;;;;;;;5154215;27;19923;-45
2023/10/14 00:41:26;;;;;;;;;;;;;;;;;;5154407;27;19969;-43
2023/10/14 00:43:52;;;;;;;;;;;;;;;;;;5153747;27;19943;-43
2023/10/14 00:46:17;;;;;;;;;;;;;;;;;;5154049;27;19923;-42
2023/10/14 00:48:46;;;;;;;;;;;;;;;;;;5154533;27;20001;-43
2023/10/14 00:51:13;;;;;;;;;;;;;;;;;;5154530;27;19930;-42
2023/10/14 00:53:39;;;;;;;;;;;;;;;;;;5155189;27;19959;-42
2023/10/14 00:56:05;;;;;;;;;;;;;;;;;;5155172;27;19967;-44
2023/10/14 00:58:30;;;;;;;;;;;;;;;;;;5154532;27;19937;-47
2023/10/14 01:00:57;;;;;;;;;;;;;;;;;;5154876;27;19927;-45
2023/10/14 01:03:22;;;;;;;;;;;;;;;;;;5154778;27;19931;-44
2023/10/14 01:05:47;;;;;;;;;;;;;;;;;;5154688;27;20018;-44
2023/10/14 01:08:13;;;;;;;;;;;;;;;;;;5154073;27;19929;-41
2023/10/14 01:10:39;;;;;;;;;;;;;;;;;;5166303;27;19927;-42
2023/10/14 01:13:13;;;;;;;;;;;;;;;;;;5175076;27;19930;-43
2023/10/14 01:15:42;;;;;;;;;;;;;;;;;;5174981;27;19950;-45
2023/10/14 01:18:07;;;;;;;;;;;;;;;;;;5163653;27;19934;-43
2023/10/14 01:20:40;;;;;;;;;;;;;;;;;;5133071;28;20000;-42
2023/10/14 01:23:07;;;;;;;;;;;;;;;;;;5133101;28;19927;-44
2023/10/14 01:25:32;;;;;;;;;;;;;;;;;;5133569;28;19927;-45
2023/10/14 01:27:59;;;;;;;;;;;;;;;;;;5133379;27;19924;-41
2023/10/14 01:30:42;;;;;;;;;;;;;;;;;;5133551;28;20299;-43
2023/10/14 01:33:12;;;;;;;;;;;;;;;;;;5132843;28;19927;-45
2023/10/14 01:35:43;;;;;;;;;;;;;;;;;;5152108;27;19934;-44
2023/10/14 01:38:08;;;;;;;;;;;;;;;;;;5153336;27;19946;-43
2023/10/14 01:40:48;;;;;;;;;;;;;;;;;;5153318;27;20316;-42
2023/10/14 01:43:15;;;;;;;;;;;;;;;;;;5153116;27;19930;-43
2023/10/14 01:45:48;;;;;;;;;;;;;;;;;;5153451;27;19931;-44
2023/10/14 01:48:14;;;;;;;;;;;;;;;;;;5152888;27;20291;-42
2023/10/14 01:50:44;;;;;;;;;;;;;;;;;;5153764;27;19923;-43
2023/10/14 01:53:10;;;;;;;;;;;;;;;;;;5153552;27;19992;-43
2023/10/14 01:55:36;;;;;;;;;;;;;;;;;;5153995;27;19934;-42
2023/10/14 01:58:02;;;;;;;;;;;;;;;;;;5153138;27;19962;-42
2023/10/14 02:00:35;;;;;;;;;;;;;;;;;;5153219;27;19926;-45
2023/10/14 02:03:05;;;;;;;;;;;;;;;;;;5153364;27;19923;-44
2023/10/14 02:05:34;;;;;;;;;;;;;;;;;;5153570;27;19971;-45
2023/10/14 02:07:59;;;;;;;;;;;;;;;;;;5146718;27;19929;-42
2023/10/14 02:10:27;;;;;;;;;;;;;;;;;;5155780;27;20351;-43
2023/10/14 02:12:53;;;;;;;;;;;;;;;;;;5153313;27;20402;-45
2023/10/14 02:15:19;;;;;;;;;;;;;;;;;;5153391;27;19927;-43
2023/10/14 02:17:46;;;;;;;;;;;;;;;;;;5152125;27;20014;-42
2023/10/14 02:22:57;;;;;;;;;;;;;;;;;;5137860;27;19970;-43
2023/10/14 02:25:27;;;;;;;;;;;;;;;;;;5152912;27;19946;-45
2023/10/14 02:27:53;;;;;;;;;;;;;;;;;;5152641;27;19927;-43
2023/10/14 02:30:18;;;;;;;;;;;;;;;;;;5153442;27;19923;-42
2023/10/14 02:32:44;;;;;;;;;;;;;;;;;;5153060;27;20037;-42
2023/10/14 02:35:12;;;;;;;;;;;;;;;;;;5153101;27;19950;-44
2023/10/14 02:37:37;;;;;;;;;;;;;;;;;;5148969;27;19923;-43
2023/10/14 02:40:08;;;;;;;;;;;;;;;;;;5131121;28;20259;-42
2023/10/14 02:42:33;;;;;;;;;;;;;;;;;;5131596;28;20204;-42
2023/10/14 02:45:04;;;;;;;;;;;;;;;;;;5131429;28;19973;-42
2023/10/14 02:47:32;;;;;;;;;;;;;;;;;;5131568;28;19931;-42
2023/10/14 02:50:05;;;;;;;;;;;;;;;;;;5143031;27;19948;-41
2023/10/14 02:52:31;;;;;;;;;;;;;;;;;;5152214;27;19923;-45
2023/10/14 02:55:50;;;;;;;;;;;;;;;;;;5151852;27;20395;-44
2023/10/14 02:57:42;;;;;;;;;;;;;;;;;;5148759;27;19927;-45
2023/10/14 03:00:09;;;;;;;;;;;;;;;;;;5130771;28;20321;-45
2023/10/14 03:02:54;;;;;;;;;;;;;;;;;;5131028;28;19927;-45
2023/10/14 03:05:36;;;;;;;;;;;;;;;;;;5131462;28;20009;-44
2023/10/14 03:08:10;;;;;;;;;;;;;;;;;;5137299;27;19966;-44
2023/10/14 03:10:39;;;;;;;;;;;;;;;;;;5171932;27;19927;-44
2023/10/14 03:13:05;;;;;;;;;;;;;;;;;;5172401;27;19987;-41
2023/10/14 03:15:38;;;;;;;;;;;;;;;;;;5172416;27;19926;-42
2023/10/14 03:18:04;;;;;;;;;;;;;;;;;;5162509;27;19981;-44
2023/10/14 03:23:17;;;;;;;;;;;;;;;;;;5190566;27;20006;-43
2023/10/14 03:25:43;;;;;;;;;;;;;;;;;;5190421;27;20243;-43
2023/10/14 03:28:13;;;;;;;;;;;;;;;;;;5190363;27;19958;-46
2023/10/14 03:30:40;;;;;;;;;;;;;;;;;;5190647;27;19978;-47
2023/10/14 03:33:10;;;;;;;;;;;;;;;;;;5190684;27;20013;-43
2023/10/14 03:35:36;;;;;;;;;;;;;;;;;;5190405;27;19978;-45
2023/10/14 03:38:14;;;;;;;;;;;;;;;;;;5189644;27;20013;-46
2023/10/14 03:43:15;;;;;;;;;;;;;;;;;;5172402;27;19930;-44
2023/10/14 03:46:12;;;;;;;;;;;;;;;;;;5168694;27;19927;-46
2023/10/14 03:48:29;;;;;;;;;;;;;;;;;;5153592;27;20366;-43
2023/10/14 03:51:02;;;;;;;;;;;;;;;;;;5168840;27;19967;-42
2023/10/14 03:53:30;;;;;;;;;;;;;;;;;;5168326;27;19927;-43
2023/10/14 03:55:57;;;;;;;;;;;;;;;;;;5169263;27;19926;-44
2023/10/14 03:58:23;;;;;;;;;;;;;;;;;;5168868;27;19954;-43
2023/10/14 04:00:49;;;;;;;;;;;;;;;;;;5168830;27;20010;-43
2023/10/14 04:03:29;;;;;;;;;;;;;;;;;;5168986;27;19949;-43
2023/10/14 04:05:59;;;;;;;;;;;;;;;;;;5169011;27;19923;-42
2023/10/14 04:08:30;;;;;;;;;;;;;;;;;;5162340;27;19979;-42
2023/10/14 04:11:09;;;;;;;;;;;;;;;;;;5148409;27;19955;-42
2023/10/14 04:13:35;;;;;;;;;;;;;;;;;;5160688;27;19970;-41
2023/10/14 04:16:01;;;;;;;;;;;;;;;;;;5167747;27;19974;-43
2023/10/14 04:18:27;;;;;;;;;;;;;;;;;;5167899;27;19927;-43
2023/10/14 04:21:26;;;;;;;;;;;;;;;;;;5168016;27;20446;-43
2023/10/14 04:23:48;;;;;;;;;;;;;;;;;;5167572;27;19961;-42
2023/10/14 04:26:14;;;;;;;;;;;;;;;;;;5168734;27;19990;-44
2023/10/14 04:28:53;;;;;;;;;;;;;;;;;;5168333;27;20355;-42
2023/10/14 04:31:19;;;;;;;;;;;;;;;;;;5168777;27;19963;-43
2023/10/14 04:33:45;;;;;;;;;;;;;;;;;;5158658;27;19923;-41
2023/10/14 04:39:02;;;;;;;;;;;;;;;;;;5190202;27;20426;-44
2023/10/14 04:41:27;;;;;;;;;;;;;;;;;;5170080;27;19934;-43
2023/10/14 04:44:11;;;;;;;;;;;;;;;;;;5147924;27;19939;-45
2023/10/14 04:46:46;;;;;;;;;;;;;;;;;;5148054;27;19990;-44
2023/10/14 04:49:15;;;;;;;;;;;;;;;;;;5133859;27;20407;-42
2023/10/14 04:51:47;;;;;;;;;;;;;;;;;;5128137;28;19928;-43
2023/10/14 04:54:19;;;;;;;;;;;;;;;;;;5154483;27;19927;-43
2023/10/14 04:56:45;;;;;;;;;;;;;;;;;;5169645;27;19966;-45
2023/10/14 04:59:11;;;;;;;;;;;;;;;;;;5154399;27;19934;-43
2023/10/14 05:01:37;;;;;;;;;;;;;;;;;;5148172;27;20446;-43
2023/10/14 05:04:02;;;;;;;;;;;;;;;;;;5148009;27;19931;-45
2023/10/14 05:06:29;;;;;;;;;;;;;;;;;;5148457;27;20009;-44
2023/10/14 05:08:55;;;;;;;;;;;;;;;;;;5148356;27;19977;-45
2023/10/14 05:11:23;;;;;;;;;;;;;;;;;;5148786;27;19934;-41
2023/10/14 05:14:33;;;;;;;;;;;;;;;;;;5148473;27;20286;-42
2023/10/14 05:16:49;;;;;;;;;;;;;;;;;;5133385;27;19927;-41
2023/10/14 05:19:23;;;;;;;;;;;;;;;;;;5148485;27;19927;-42
2023/10/14 05:21:55;;;;;;;;;;;;;;;;;;5147927;27;19924;-45
2023/10/14 05:24:23;;;;;;;;;;;;;;;;;;5148213;27;20368;-44
2023/10/14 05:26:58;;;;;;;;;;;;;;;;;;5148682;27;19923;-44
2023/10/14 05:29:24;;;;;;;;;;;;;;;;;;5147882;27;19950;-42
2023/10/14 05:31:49;;;;;;;;;;;;;;;;;;5148275;27;20316;-43
2023/10/14 05:34:16;;;;;;;;;;;;;;;;;;5148058;27;19968;-42
2023/10/14 05:36:41;;;;;;;;;;;;;;;;;;5148107;27;19934;-43
2023/10/14 05:39:07;;;;;;;;;;;;;;;;;;5147096;27;19927;-45
2023/10/14 05:41:33;;;;;;;;;;;;;;;;;;5155403;27;19962;-41
2023/10/14 05:43:59;;;;;;;;;;;;;;;;;;5167853;27;19930;-43
2023/10/14 05:46:24;;;;;;;;;;;;;;;;;;5168559;27;19927;-42
2023/10/14 05:48:53;;;;;;;;;;;;;;;;;;5150604;27;20014;-47
2023/10/14 05:51:18;;;;;;;;;;;;;;;;;;5134171;28;19930;-42
2023/10/14 05:53:46;;;;;;;;;;;;;;;;;;5133736;28;19978;-43
2023/10/14 05:56:14;;;;;;;;;;;;;;;;;;5147101;27;19934;-43
2023/10/14 05:58:40;;;;;;;;;;;;;;;;;;5144179;27;19966;-45
2023/10/14 06:01:05;;;;;;;;;;;;;;;;;;5133317;28;19927;-44
2023/10/14 06:03:31;;;;;;;;;;;;;;;;;;5133890;28;20324;-44
2023/10/14 06:05:56;;;;;;;;;;;;;;;;;;5133167;28;20026;-42
2023/10/14 06:08:21;;;;;;;;;;;;;;;;;;5136851;27;19975;-43
2023/10/14 06:10:47;;;;;;;;;;;;;;;;;;5113056;28;20014;-43
2023/10/14 06:13:14;;;;;;;;;;;;;;;;;;5112671;28;20471;-45
2023/10/14 06:15:40;;;;;;;;;;;;;;;;;;5113061;28;19924;-44
2023/10/14 06:18:05;;;;;;;;;;;;;;;;;;5117729;28;19934;-45
2023/10/14 06:20:32;;;;;;;;;;;;;;;;;;5132700;28;20374;-47
2023/10/14 06:22:59;;;;;;;;;;;;;;;;;;5133646;28;19935;-46
2023/10/14 06:25:24;;;;;;;;;;;;;;;;;;5133050;28;19930;-42
2023/10/14 06:27:49;;;;;;;;;;;;;;;;;;5133314;28;20070;-42
2023/10/14 06:30:19;;;;;;;;;;;;;;;;;;5133486;28;19980;-43
2023/10/14 06:32:45;;;;;;;;;;;;;;;;;;5133617;28;19923;-42
2023/10/14 06:35:14;;;;;;;;;;;;;;;;;;5133727;28;19927;-43
2023/10/14 06:37:42;;;;;;;;;;;;;;;;;;5132613;27;19924;-44
2023/10/14 06:40:11;;;;;;;;;;;;;;;;;;5132340;28;20278;-45
2023/10/14 06:42:40;;;;;;;;;;;;;;;;;;5132560;27;20291;-44
2023/10/14 06:45:05;;;;;;;;;;;;;;;;;;5132518;27;19966;-42
2023/10/14 06:47:31;;;;;;;;;;;;;;;;;;5132675;28;19924;-41
2023/10/14 06:49:57;;;;;;;;;;;;;;;;;;5111865;28;20019;-43
2023/10/14 06:52:22;;;;;;;;;;;;;;;;;;5112437;28;19962;-42
2023/10/14 06:54:51;;;;;;;;;;;;;;;;;;5112454;28;19923;-45
2023/10/14 06:57:16;;;;;;;;;;;;;;;;;;5128228;27;19935;-43
2023/10/14 06:59:42;;;;;;;;;;;;;;;;;;5133553;27;19930;-43
2023/10/14 07:02:10;;;;;;;;;;;;;;;;;;5131881;27;19930;-45
2023/10/14 07:04:40;;;;;;;;;;;;;;;;;;5133225;27;20427;-42
2023/10/14 07:07:09;;;;;;;;;;;;;;;;;;5131978;27;19927;-42
2023/10/14 07:09:34;;;;;;;;;;;;;;;;;;5118333;27;20006;-43
2023/10/14 07:11:59;;;;;;;;;;;;;;;;;;5112507;28;19963;-42
2023/10/14 07:14:25;;;;;;;;;;;;;;;;;;5112172;28;20014;-42
2023/10/14 07:16:51;;;;;;;;;;;;;;;;;;5112592;28;19930;-42
2023/10/14 07:19:18;;;;;;;;;;;;;;;;;;5112047;28;20325;-43
2023/10/14 07:21:44;;;;;;;;;;;;;;;;;;5112064;28;19924;-42
2023/10/14 07:24:14;;;;;;;;;;;;;;;;;;5112260;28;19949;-45
2023/10/14 07:26:40;;;;;;;;;;;;;;;;;;5112156;28;19931;-46
2023/10/14 07:29:05;;;;;;;;;;;;;;;;;;5112303;28;19924;-42
2023/10/14 07:31:31;;;;;;;;;;;;;;;;;;5112176;28;20269;-44
2023/10/14 07:34:02;;;;;;;;;;;;;;;;;;5112417;28;20030;-43
2023/10/14 07:36:28;;;;;;;;;;;;;;;;;;5112476;28;20441;-43
2023/10/14 07:39:01;;;;;;;;;;;;;;;;;;5111745;28;20010;-42
2023/10/14 07:41:26;;;;;;;;;;;;;;;;;;5110527;28;20226;-42
2023/10/14 07:43:52;;;;;;;;;;;;;;;;;;5111016;28;19927;-42
2023/10/14 07:46:17;;;;;;;;;;;;;;;;;;5142063;27;19957;-43
2023/10/14 07:48:43;;;;;;;;;;;;;;;;;;5142293;27;20398;-44
2023/10/14 07:51:09;;;;;;;;;;;;;;;;;;5132475;28;19930;-42
2023/10/14 07:53:53;;;;;;;;;;;;;;;;;;5132322;28;20375;-44
2023/10/14 07:56:18;;;;;;;;;;;;;;;;;;5132567;28;19977;-44
2023/10/14 07:58:44;;;;;;;;;;;;;;;;;;5131924;27;20014;-43
2023/10/14 08:01:09;;;;;;;;;;;;;;;;;;5147167;27;20030;-41
2023/10/14 08:03:36;;;;;;;;;;;;;;;;;;5152237;27;19927;-41
2023/10/14 08:06:05;;;;;;;;;;;;;;;;;;5134369;27;19927;-44
2023/10/14 08:08:30;;;;;;;;;;;;;;;;;;5132613;27;19981;-44
2023/10/14 08:10:57;;;;;;;;;;;;;;;;;;5128863;28;19931;-41
2023/10/14 08:13:22;;;;;;;;;;;;;;;;;;5110672;28;19967;-44
2023/10/14 08:15:50;;;;;;;;;;;;;;;;;;5111014;28;20018;-41
2023/10/14 08:18:15;;;;;;;;;;;;;;;;;;5117684;28;19924;-42
2023/10/14 08:20:43;;;;;;;;;;;;;;;;;;5131382;28;20031;-46
2023/10/14 08:23:09;;;;;;;;;;;;;;;;;;5131369;28;20019;-42
2023/10/14 08:25:34;;;;;;;;;;;;;;;;;;5131245;28;19927;-43
2023/10/14 08:28:04;;;;;;;;;;;;;;;;;;5130700;27;19981;-44
2023/10/14 08:30:32;;;;;;;;;;;;;;;;;;5131668;28;19923;-43
2023/10/14 08:32:58;;;;;;;;;;;;;;;;;;5131528;28;19928;-44
2023/10/14 08:35:27;;;;;;;;;;;;;;;;;;5131619;28;19930;-43
2023/10/14 08:37:52;;;;;;;;;;;;;;;;;;5130765;28;19998;-43
2023/10/14 08:40:19;;;;;;;;;;;;;;;;;;5130777;28;19934;-42
2023/10/14 08:42:45;;;;;;;;;;;;;;;;;;5130371;27;19925;-42
2023/10/14 08:45:10;;;;;;;;;;;;;;;;;;5130755;28;20431;-43
2023/10/14 08:47:36;;;;;;;;;;;;;;;;;;5143385;27;20519;-42
2023/10/14 08:50:01;;;;;;;;;;;;;;;;;;5131447;28;20010;-43
2023/10/14 08:52:27;;;;;;;;;;;;;;;;;;5131585;28;19928;-41
2023/10/14 08:54:52;;;;;;;;;;;;;;;;;;5131294;28;19923;-41
2023/10/14 08:57:18;;;;;;;;;;;;;;;;;;5131368;28;20018;-42
2023/10/14 08:59:44;;;;;;;;;;;;;;;;;;5132644;27;19930;-42
2023/10/14 09:02:10;;;;;;;;;;;;;;;;;;5146964;27;20386;-43
2023/10/14 09:04:35;;;;;;;;;;;;;;;;;;5143888;27;20014;-44
2023/10/14 09:07:01;;;;;;;;;;;;;;;;;;5142782;27;19937;-43
2023/10/14 09:09:26;;;;;;;;;;;;;;;;;;5118042;27;20374;-42
2023/10/14 09:11:52;;;;;;;;;;;;;;;;;;5110376;28;20018;-43
2023/10/14 09:14:17;;;;;;;;;;;;;;;;;;5110049;28;19977;-41
2023/10/14 09:16:43;;;;;;;;;;;;;;;;;;5110676;28;20018;-44
2023/10/14 09:19:12;;;;;;;;;;;;;;;;;;5110071;28;20018;-41
2023/10/14 09:21:40;;;;;;;;;;;;;;;;;;5110014;28;20395;-42
2023/10/14 09:24:08;;;;;;;;;;;;;;;;;;5111969;28;19950;-43
2023/10/14 09:26:33;;;;;;;;;;;;;;;;;;5113621;28;20011;-44
2023/10/14 09:28:59;;;;;;;;;;;;;;;;;;5113730;28;20031;-42
2023/10/14 09:31:24;;;;;;;;;;;;;;;;;;5114292;28;19924;-41
2023/10/14 09:33:52;;;;;;;;;;;;;;;;;;5113695;28;20345;-41
2023/10/14 09:36:19;;;;;;;;;;;;;;;;;;5113917;28;19997;-41
2023/10/14 09:38:44;;;;;;;;;;;;;;;;;;5123564;28;20354;-42
2023/10/14 09:41:10;;;;;;;;;;;;;;;;;;5132963;28;20405;-43
2023/10/14 09:43:39;;;;;;;;;;;;;;;;;;5134052;28;19946;-42
2023/10/14 09:46:04;;;;;;;;;;;;;;;;;;5133701;28;19980;-41
2023/10/14 09:48:31;;;;;;;;;;;;;;;;;;5135386;27;19959;-42
2023/10/14 09:50:57;;;;;;;;;;;;;;;;;;5154882;27;19958;-43
2023/10/14 09:53:26;;;;;;;;;;;;;;;;;;5154431;27;19931;-44
2023/10/14 09:55:51;;;;;;;;;;;;;;;;;;5154633;27;19974;-44
2023/10/14 09:58:18;;;;;;;;;;;;;;;;;;5147721;27;19977;-44
2023/10/14 10:00:43;;;;;;;;;;;;;;;;;;5142547;27;19923;-43
2023/10/14 10:03:09;;;;;;;;;;;;;;;;;;5151641;27;19974;-42
2023/10/14 10:05:38;;;;;;;;;;;;;;;;;;5146716;27;19975;-45
2023/10/14 10:08:04;;;;;;;;;;;;;;;;;;5144827;27;19924;-43
2023/10/14 10:10:30;;;;;;;;;;;;;;;;;;5133522;28;19930;-41
2023/10/14 10:12:55;;;;;;;;;;;;;;;;;;5133458;28;20283;-44
2023/10/14 10:15:21;;;;;;;;;;;;;;;;;;5133305;28;20415;-42
2023/10/14 10:17:47;;;;;;;;;;;;;;;;;;5133131;27;20007;-41
2023/10/14 10:20:13;;;;;;;;;;;;;;;;;;5152885;27;20052;-43
2023/10/14 10:22:39;;;;;;;;;;;;;;;;;;5154381;27;20021;-44
2023/10/14 10:25:05;;;;;;;;;;;;;;;;;;5154492;27;19987;-45
2023/10/14 10:27:30;;;;;;;;;;;;;;;;;;5153686;27;20252;-41
2023/10/14 10:29:56;;;;;;;;;;;;;;;;;;5113109;28;20030;-42
2023/10/14 10:32:21;;;;;;;;;;;;;;;;;;5113042;28;20018;-41
2023/10/14 10:34:47;;;;;;;;;;;;;;;;;;5112611;28;20497;-44
2023/10/14 10:37:15;;;;;;;;;;;;;;;;;;5112314;28;20393;-42
2023/10/14 10:39:40;;;;;;;;;;;;;;;;;;5130439;28;20383;-46
2023/10/14 10:42:06;;;;;;;;;;;;;;;;;;5132511;28;19927;-41
2023/10/14 10:44:34;;;;;;;;;;;;;;;;;;5132378;28;19928;-43
2023/10/14 10:47:00;;;;;;;;;;;;;;;;;;5132476;28;19927;-45
2023/10/14 10:49:25;;;;;;;;;;;;;;;;;;5133046;27;19935;-43
2023/10/14 10:51:51;;;;;;;;;;;;;;;;;;5140022;27;19984;-42
2023/10/14 10:54:16;;;;;;;;;;;;;;;;;;5151191;27;20072;-45
2023/10/14 10:56:42;;;;;;;;;;;;;;;;;;5153967;27;19927;-42
2023/10/14 10:59:16;;;;;;;;;;;;;;;;;;5138595;27;19959;-42
2023/10/14 11:01:41;;;;;;;;;;;;;;;;;;5144451;27;19975;-46
2023/10/14 11:04:12;;;;;;;;;;;;;;;;;;5132741;27;20331;-44
2023/10/14 11:06:37;;;;;;;;;;;;;;;;;;5132954;28;19930;-42
2023/10/14 11:09:03;;;;;;;;;;;;;;;;;;5133151;27;19923;-43
2023/10/14 11:11:29;;;;;;;;;;;;;;;;;;5132706;27;19970;-43
2023/10/14 11:13:56;;;;;;;;;;;;;;;;;;5131252;27;19984;-41
2023/10/14 11:16:21;;;;;;;;;;;;;;;;;;5132662;27;19935;-42
2023/10/14 11:18:48;;;;;;;;;;;;;;;;;;5121275;28;19927;-41
2023/10/14 11:21:14;;;;;;;;;;;;;;;;;;5135279;27;20022;-41
2023/10/14 11:23:40;;;;;;;;;;;;;;;;;;5132570;27;20326;-43
2023/10/14 11:26:07;;;;;;;;;;;;;;;;;;5132803;28;20026;-43
2023/10/14 11:28:32;;;;;;;;;;;;;;;;;;5123277;27;20325;-42
2023/10/14 11:30:58;;;;;;;;;;;;;;;;;;5111970;28;20018;-45
2023/10/14 11:33:26;;;;;;;;;;;;;;;;;;5111608;28;19992;-44
2023/10/14 11:35:51;;;;;;;;;;;;;;;;;;5112101;28;19928;-43
2023/10/14 11:38:17;;;;;;;;;;;;;;;;;;5111678;28;19986;-44
2023/10/14 11:40:45;;;;;;;;;;;;;;;;;;5111277;28;20007;-43
2023/10/14 11:43:11;;;;;;;;;;;;;;;;;;5111073;28;20426;-43
2023/10/14 11:45:40;;;;;;;;;;;;;;;;;;5111537;28;20369;-43
2023/10/14 11:48:06;;;;;;;;;;;;;;;;;;5110553;28;19935;-42
2023/10/14 11:50:32;;;;;;;;;;;;;;;;;;5111569;28;20006;-42
2023/10/14 11:52:58;;;;;;;;;;;;;;;;;;5111763;28;19927;-44
2023/10/14 11:55:25;;;;;;;;;;;;;;;;;;5112020;28;19924;-43
2023/10/14 11:57:53;;;;;;;;;;;;;;;;;;5111231;28;19932;-42
2023/10/14 12:00:20;;;;;;;;;;;;;;;;;;5111183;28;19923;-44
2023/10/14 12:02:45;;;;;;;;;;;;;;;;;;5110829;28;19923;-44
2023/10/14 12:05:11;;;;;;;;;;;;;;;;;;5127181;27;20109;-44
2023/10/14 12:07:36;;;;;;;;;;;;;;;;;;5130782;28;19931;-42
2023/10/14 12:10:04;;;;;;;;;;;;;;;;;;5131643;28;19933;-43
2023/10/14 12:12:29;;;;;;;;;;;;;;;;;;5131856;28;20398;-45
2023/10/14 12:14:55;;;;;;;;;;;;;;;;;;5133178;27;20435;-41
2023/10/14 12:17:21;;;;;;;;;;;;;;;;;;5131958;28;20343;-44
2023/10/14 12:19:47;;;;;;;;;;;;;;;;;;5112029;27;19924;-41
2023/10/14 12:22:12;;;;;;;;;;;;;;;;;;5129194;27;19966;-43
2023/10/14 12:24:38;;;;;;;;;;;;;;;;;;5152167;27;19930;-44
2023/10/14 12:27:03;;;;;;;;;;;;;;;;;;5152120;27;19930;-41
2023/10/14 12:29:32;;;;;;;;;;;;;;;;;;5134558;27;19975;-41
2023/10/14 12:31:59;;;;;;;;;;;;;;;;;;5131685;28;20333;-42
2023/10/14 12:34:43;;;;;;;;;;;;;;;;;;5131464;28;19980;-45
2023/10/14 12:37:14;;;;;;;;;;;;;;;;;;5131517;28;19973;-41
2023/10/14 12:39:43;;;;;;;;;;;;;;;;;;5131138;28;20162;-41
2023/10/14 12:42:08;;;;;;;;;;;;;;;;;;5131243;28;19931;-42
2023/10/14 12:44:35;;;;;;;;;;;;;;;;;;5130899;28;20030;-42
2023/10/14 12:47:10;;;;;;;;;;;;;;;;;;5131027;28;20351;-44
2023/10/14 12:49:37;;;;;;;;;;;;;;;;;;5130905;28;20356;-44
2023/10/14 12:52:05;;;;;;;;;;;;;;;;;;5131550;28;19931;-41
2023/10/14 12:54:34;;;;;;;;;;;;;;;;;;5131013;28;20295;-42
2023/10/14 12:57:03;;;;;;;;;;;;;;;;;;5131169;28;20067;-44
2023/10/14 12:59:28;;;;;;;;;;;;;;;;;;5133220;27;19951;-43
2023/10/14 13:02:00;;;;;;;;;;;;;;;;;;5135061;28;20014;-43
2023/10/14 13:04:27;;;;;;;;;;;;;;;;;;5116419;27;19924;-43
2023/10/14 13:06:52;;;;;;;;;;;;;;;;;;5114869;28;19939;-42
2023/10/14 13:09:19;;;;;;;;;;;;;;;;;;5129005;28;19924;-44
2023/10/14 13:11:44;;;;;;;;;;;;;;;;;;5135485;28;19977;-42
2023/10/14 13:14:11;;;;;;;;;;;;;;;;;;5135123;27;20021;-43
2023/10/14 13:16:36;;;;;;;;;;;;;;;;;;5154746;27;20386;-45
2023/10/14 13:19:03;;;;;;;;;;;;;;;;;;5142332;27;19927;-43
2023/10/14 13:21:29;;;;;;;;;;;;;;;;;;5134208;28;19923;-42
2023/10/14 13:23:54;;;;;;;;;;;;;;;;;;5145887;27;19930;-41
2023/10/14 13:26:20;;;;;;;;;;;;;;;;;;5155294;27;19966;-44
2023/10/14 13:28:46;;;;;;;;;;;;;;;;;;5143330;27;20003;-43
2023/10/14 13:31:12;;;;;;;;;;;;;;;;;;5134954;28;19927;-41
2023/10/14 13:33:38;;;;;;;;;;;;;;;;;;5134074;28;19927;-41
2023/10/14 13:36:09;;;;;;;;;;;;;;;;;;5134461;28;19998;-41
2023/10/14 13:38:39;;;;;;;;;;;;;;;;;;5134198;28;20422;-44
2023/10/14 13:41:04;;;;;;;;;;;;;;;;;;5134075;28;19924;-42
2023/10/14 13:43:30;;;;;;;;;;;;;;;;;;5133963;28;20019;-43
2023/10/14 13:45:55;;;;;;;;;;;;;;;;;;5134207;28;19985;-43
2023/10/14 13:48:21;;;;;;;;;;;;;;;;;;5133218;28;20018;-42
2023/10/14 13:50:46;;;;;;;;;;;;;;;;;;5134120;28;19974;-41
2023/10/14 13:53:19;;;;;;;;;;;;;;;;;;5134505;28;19932;-43
2023/10/14 13:55:45;;;;;;;;;;;;;;;;;;5134138;28;19977;-43
2023/10/14 13:58:12;;;;;;;;;;;;;;;;;;5133301;27;19924;-46
2023/10/14 14:00:39;;;;;;;;;;;;;;;;;;5133602;28;19923;-42
2023/10/14 14:03:05;;;;;;;;;;;;;;;;;;5128769;27;20391;-44
2023/10/14 14:05:30;;;;;;;;;;;;;;;;;;5134062;28;20010;-43
2023/10/14 14:07:56;;;;;;;;;;;;;;;;;;5133777;28;20384;-41
2023/10/14 14:10:21;;;;;;;;;;;;;;;;;;5133794;27;20022;-42
2023/10/14 14:12:47;;;;;;;;;;;;;;;;;;5134103;28;19934;-42
2023/10/14 14:15:14;;;;;;;;;;;;;;;;;;5134207;28;20011;-42
2023/10/14 14:17:39;;;;;;;;;;;;;;;;;;5135733;27;19975;-43
2023/10/14 14:20:05;;;;;;;;;;;;;;;;;;5113317;28;20053;-42
2023/10/14 14:22:32;;;;;;;;;;;;;;;;;;5113318;28;20356;-42
2023/10/14 14:24:58;;;;;;;;;;;;;;;;;;5123206;27;19931;-41
2023/10/14 14:27:24;;;;;;;;;;;;;;;;;;5153480;27;20423;-44
2023/10/14 14:29:51;;;;;;;;;;;;;;;;;;5134098;27;19923;-44
2023/10/14 14:32:18;;;;;;;;;;;;;;;;;;5133907;28;19923;-44
2023/10/14 14:34:44;;;;;;;;;;;;;;;;;;5133776;28;19930;-42
2023/10/14 14:37:09;;;;;;;;;;;;;;;;;;5134107;28;20006;-42
2023/10/14 14:39:39;;;;;;;;;;;;;;;;;;5133626;28;20299;-44
2023/10/14 14:42:10;;;;;;;;;;;;;;;;;;5133653;28;19927;-42
2023/10/14 14:44:35;;;;;;;;;;;;;;;;;;5133156;28;19967;-44
2023/10/14 14:47:01;;;;;;;;;;;;;;;;;;5133698;28;20017;-44
2023/10/14 14:49:26;;;;;;;;;;;;;;;;;;5132591;28;20014;-46
2023/10/14 14:51:52;;;;;;;;;;;;;;;;;;5133217;28;20005;-41
2023/10/14 14:54:18;;;;;;;;;;;;;;;;;;5133297;28;19927;-43
2023/10/14 14:56:44;;;;;;;;;;;;;;;;;;5133346;28;19934;-44
2023/10/14 14:59:13;;;;;;;;;;;;;;;;;;5132893;28;19923;-41
2023/10/14 15:01:40;;;;;;;;;;;;;;;;;;5131829;27;19980;-43
2023/10/14 15:04:07;;;;;;;;;;;;;;;;;;5153672;27;19927;-43
2023/10/14 15:06:32;;;;;;;;;;;;;;;;;;5154064;27;19923;-44
2023/10/14 15:08:58;;;;;;;;;;;;;;;;;;5128287;27;20018;-42
2023/10/14 15:11:25;;;;;;;;;;;;;;;;;;5113121;28;19934;-43
2023/10/14 15:13:50;;;;;;;;;;;;;;;;;;5112343;28;19928;-44
2023/10/14 15:16:16;;;;;;;;;;;;;;;;;;5112581;28;19946;-45
2023/10/14 15:18:51;;;;;;;;;;;;;;;;;;5127388;27;19923;-43
2023/10/14 15:21:18;;;;;;;;;;;;;;;;;;5131493;27;19996;-44
2023/10/14 15:23:43;;;;;;;;;;;;;;;;;;5131729;27;20015;-41
2023/10/14 15:26:10;;;;;;;;;;;;;;;;;;5135612;27;19988;-44
2023/10/14 15:28:35;;;;;;;;;;;;;;;;;;5134819;27;19965;-42
2023/10/14 15:31:01;;;;;;;;;;;;;;;;;;5132602;28;20014;-44
2023/10/14 15:33:26;;;;;;;;;;;;;;;;;;5132543;28;19967;-44
2023/10/14 15:35:53;;;;;;;;;;;;;;;;;;5132714;28;20018;-44
2023/10/14 15:38:18;;;;;;;;;;;;;;;;;;5124724;27;20296;-44
2023/10/14 15:40:44;;;;;;;;;;;;;;;;;;5111305;28;19967;-42
2023/10/14 15:43:10;;;;;;;;;;;;;;;;;;5110890;28;20418;-43
2023/10/14 15:45:36;;;;;;;;;;;;;;;;;;5111153;28;20375;-43
2023/10/14 15:48:08;;;;;;;;;;;;;;;;;;5111024;28;20007;-44
2023/10/14 15:50:34;;;;;;;;;;;;;;;;;;5111211;28;20407;-43
2023/10/14 15:52:59;;;;;;;;;;;;;;;;;;5111340;28;20014;-42
2023/10/14 15:55:27;;;;;;;;;;;;;;;;;;5111509;28;20392;-42
2023/10/14 15:57:54;;;;;;;;;;;;;;;;;;5111222;28;19950;-43
2023/10/14 16:00:22;;;;;;;;;;;;;;;;;;5111963;27;19963;-44
2023/10/14 16:02:48;;;;;;;;;;;;;;;;;;5136699;27;19974;-41
2023/10/14 16:05:14;;;;;;;;;;;;;;;;;;5152806;27;20282;-41
2023/10/14 16:07:40;;;;;;;;;;;;;;;;;;5149648;27;19927;-42
2023/10/14 16:10:05;;;;;;;;;;;;;;;;;;5110764;28;19931;-42
2023/10/14 16:12:33;;;;;;;;;;;;;;;;;;5110928;28;19965;-44
2023/10/14 16:14:58;;;;;;;;;;;;;;;;;;5111004;28;19959;-41
2023/10/14 16:17:23;;;;;;;;;;;;;;;;;;5111277;28;19974;-43
2023/10/14 16:19:49;;;;;;;;;;;;;;;;;;5117050;27;20021;-42
2023/10/14 16:22:14;;;;;;;;;;;;;;;;;;5151098;27;19959;-42
2023/10/14 16:24:40;;;;;;;;;;;;;;;;;;5152609;27;20383;-43
2023/10/14 16:27:05;;;;;;;;;;;;;;;;;;5152573;27;19950;-43
2023/10/14 16:29:33;;;;;;;;;;;;;;;;;;5140920;27;19938;-43
2023/10/14 16:31:59;;;;;;;;;;;;;;;;;;5131851;27;19923;-41
2023/10/14 16:34:27;;;;;;;;;;;;;;;;;;5131509;27;20015;-44
2023/10/14 16:36:52;;;;;;;;;;;;;;;;;;5131994;27;19931;-45
2023/10/14 16:39:18;;;;;;;;;;;;;;;;;;5115477;28;19967;-42
2023/10/14 16:41:43;;;;;;;;;;;;;;;;;;5110300;28;20019;-41
2023/10/14 16:44:09;;;;;;;;;;;;;;;;;;5109870;28;20081;-44
2023/10/14 16:46:35;;;;;;;;;;;;;;;;;;5110695;28;20283;-43
2023/10/14 16:49:04;;;;;;;;;;;;;;;;;;5110282;28;19924;-44
2023/10/14 16:51:29;;;;;;;;;;;;;;;;;;5110753;28;19931;-43
2023/10/14 16:53:55;;;;;;;;;;;;;;;;;;5110741;28;19971;-44
2023/10/14 16:56:24;;;;;;;;;;;;;;;;;;5110945;28;20053;-42
2023/10/14 16:58:50;;;;;;;;;;;;;;;;;;5110536;28;20370;-41